Royse City, TX (75189)

2:52 AM CDT on August 28, 2016 (GMT -0500)
McKamy Meadows | | Change Station

Elev 553 ft 32.97 °N, 96.34 °W | Updated 1 second ago

Scattered Clouds
Scattered Clouds
75.0 °F
Feels Like 74 °F
N
2.3
Wind Variable Wind from South
Gusts 0.0 mph

Today
High -- | Low -- °F
--% Chance of Precip.
Yesterday
High -- | Low -- °F
Precip. -- in
Pressure 30.03 in
Visibility 10.0 miles
Clouds Scattered Clouds 4800 ft
Heat Index 74 °F
Dew Point 72 °F
Humidity 91%
Rainfall 0.00 in
Snow Depth Not available.
6:57 AM 7:54 PM
Waning Crescent, 17% visible
METAR KF46 280735Z AUTO 17004KT 10SM SCT048 24/22 A3003 RMK AO2 T02390224
Pressure 30.03 in
Visibility 10.0 miles
Clouds Scattered Clouds 4800 ft
Heat Index 74 °F
Dew Point 72 °F
Humidity 91%
Rainfall 0.00 in
Snow Depth Not available.
6:57 AM 7:54 PM
Waning Crescent, 17% visible
METAR KF46 280735Z AUTO 17004KT 10SM SCT048 24/22 A3003 RMK AO2 T02390224

10-Day Weather Forecast

Almanac

Astronomy

Aug. 28, 2016 Rise Set
Actual Time
Civil Twilight
Nautical Twilight
Astronomical Twilight
Moon
Length of Visible Light
Length of Day
Tomorrow will be .
, % of the Moon is Illuminated

Today's Extremes

State Highs State Lows

Community

WunderPhotos

Upload Photos

1,935,533 photos uploaded!

WunderBlog® & News

Nearby

Air Quality

  Air Quality AQ Index Pollutant
Not available.

Snow Depth

Station Depth Elevation

Earthquake Activity

City Distance Mag. Time & Date
Minimum magnitude displayed is 2.5.

Coastal Water Temperatures

Place Temperature

Stations

Nearby Weather Stations

Station Location Temp. Windchill Dew Point Humidity Wind Precip. Elev Updated Type
                   

Watches & Warnings

There are currently no watches in effect.